Time;durP1;ratioP1;P1;durP2;ratioP2;P2;SDS_P1;SDS_P2;PMS_P1;PMS_P2;Temp;Humidity;BMP_temperature;BMP_pressure;BME280_temperature;BME280_humidity;BME280_pressure;Samples;Min_cycle;Max_cycle;Signal;HPM_P1;HPM_P2
2021/11/06 00:00:44;;;;;;;1.88;1.23;;;12.00;90.20;;;;;;4972484;28;20382;-83
2021/11/06 00:03:10;;;;;;;1.80;1.20;;;12.00;90.10;;;;;;4974425;28;20482;-83
2021/11/06 00:05:36;;;;;;;1.38;1.27;;;12.00;90.20;;;;;;4974954;28;20490;-84
2021/11/06 00:08:03;;;;;;;1.73;1.10;;;12.00;90.00;;;;;;4975864;28;20121;-83
2021/11/06 00:10:29;;;;;;;1.40;1.30;;;12.00;90.10;;;;;;4975955;28;20385;-83
2021/11/06 00:12:56;;;;;;;7.65;1.60;;;12.00;89.90;;;;;;4975277;28;20035;-80
2021/11/06 00:15:22;;;;;;;3.08;1.10;;;12.00;90.00;;;;;;4976085;28;20023;-83
2021/11/06 00:17:48;;;;;;;1.17;1.05;;;12.00;90.00;;;;;;4973515;28;20046;-84
2021/11/06 00:20:15;;;;;;;1.40;1.15;;;12.00;90.10;;;;;;4970436;28;20535;-83
2021/11/06 00:22:41;;;;;;;3.03;1.35;;;11.90;90.10;;;;;;4969075;28;20422;-81
2021/11/06 00:25:10;;;;;;;1.58;1.17;;;11.90;90.10;;;;;;4974315;28;20027;-83
2021/11/06 00:27:36;;;;;;;1.45;1.35;;;11.90;90.20;;;;;;4975322;28;20039;-82
2021/11/06 00:30:04;;;;;;;4.28;1.27;;;11.90;90.10;;;;;;4971621;28;20115;-82
2021/11/06 00:32:30;;;;;;;1.58;1.38;;;11.90;90.40;;;;;;4968204;28;20022;-81
2021/11/06 00:34:56;;;;;;;2.20;1.48;;;11.90;90.30;;;;;;4968908;28;20094;-82
2021/11/06 00:37:22;;;;;;;1.77;1.40;;;11.80;90.30;;;;;;4964496;28;20031;-82
2021/11/06 00:39:47;;;;;;;1.50;1.40;;;11.90;90.20;;;;;;4967344;28;20103;-81
2021/11/06 00:42:13;;;;;;;1.58;1.40;;;11.80;90.20;;;;;;4973638;28;20046;-81
2021/11/06 00:44:39;;;;;;;1.45;1.30;;;11.80;90.30;;;;;;4972802;28;20023;-83
2021/11/06 00:47:04;;;;;;;2.80;1.40;;;11.80;90.50;;;;;;4962291;28;20050;-82
2021/11/06 00:49:30;;;;;;;1.65;1.55;;;11.80;90.50;;;;;;4975046;28;20504;-81
2021/11/06 00:51:56;;;;;;;7.10;1.60;;;11.80;90.60;;;;;;4972168;28;20137;-81
2021/11/06 00:54:22;;;;;;;4.00;0.98;;;11.80;90.50;;;;;;4966863;28;20486;-80
2021/11/06 00:56:48;;;;;;;6.70;1.33;;;11.70;90.80;;;;;;4972591;28;20023;-81
2021/11/06 00:59:13;;;;;;;1.65;1.38;;;11.70;90.70;;;;;;4965196;28;20027;-82
2021/11/06 01:01:39;;;;;;;1.48;1.38;;;11.70;90.70;;;;;;4966874;28;20106;-82
2021/11/06 01:04:05;;;;;;;3.53;1.20;;;11.60;90.70;;;;;;4965360;28;20102;-81
2021/11/06 01:06:31;;;;;;;2.60;1.20;;;11.60;90.70;;;;;;4974630;28;20027;-82
2021/11/06 01:08:57;;;;;;;1.27;1.10;;;11.70;90.80;;;;;;4963405;28;20518;-82
2021/11/06 01:11:22;;;;;;;1.58;1.40;;;11.70;90.60;;;;;;4974352;28;20034;-82
2021/11/06 01:13:48;;;;;;;2.13;1.70;;;11.70;90.70;;;;;;4974080;28;20114;-81
2021/11/06 01:16:14;;;;;;;3.28;1.30;;;11.70;90.60;;;;;;4974500;28;20018;-82
2021/11/06 01:18:40;;;;;;;2.00;1.48;;;11.70;90.70;;;;;;4974751;28;20044;-82
2021/11/06 01:21:06;;;;;;;1.80;1.70;;;11.70;90.80;;;;;;4974423;28;20023;-82
2021/11/06 01:23:32;;;;;;;1.33;1.23;;;11.70;91.00;;;;;;4970655;28;20478;-82
2021/11/06 01:25:59;;;;;;;2.97;1.70;;;11.70;91.00;;;;;;4974692;28;20069;-81
2021/11/06 01:28:24;;;;;;;1.48;1.30;;;11.60;91.20;;;;;;4965278;28;20066;-83
2021/11/06 01:30:50;;;;;;;4.03;1.33;;;11.60;91.10;;;;;;4955201;28;20433;-82
2021/11/06 01:33:16;;;;;;;4.50;1.45;;;11.70;91.00;;;;;;4970578;28;20520;-83
2021/11/06 01:35:42;;;;;;;2.58;1.63;;;11.70;91.00;;;;;;4973897;28;20025;-81
2021/11/06 01:38:08;;;;;;;1.48;1.38;;;11.70;91.00;;;;;;4960554;28;20034;-80
2021/11/06 01:40:33;;;;;;;1.70;1.33;;;11.60;91.00;;;;;;4974116;28;20038;-82
2021/11/06 01:42:59;;;;;;;2.70;1.40;;;11.60;90.90;;;;;;4973836;28;20023;-82
2021/11/06 01:45:25;;;;;;;1.08;0.98;;;11.60;90.70;;;;;;4956306;28;20390;-82
2021/11/06 01:47:51;;;;;;;1.58;1.10;;;11.60;90.70;;;;;;4968891;28;20125;-83
2021/11/06 01:50:19;;;;;;;1.40;1.17;;;11.60;91.00;;;;;;4972339;28;20023;-81
2021/11/06 01:52:45;;;;;;;1.20;1.10;;;11.60;90.60;;;;;;4969694;28;20130;-81
2021/11/06 01:55:11;;;;;;;1.85;1.55;;;11.60;90.90;;;;;;4973911;28;20105;-79
2021/11/06 01:57:38;;;;;;;1.95;1.30;;;11.60;90.80;;;;;;4967357;28;20035;-82
2021/11/06 02:00:20;;;;;;;6.28;1.67;;;11.50;90.60;;;;;;4973929;28;20414;-81
2021/11/06 02:02:46;;;;;;;1.20;1.08;;;11.50;90.60;;;;;;4973511;28;20066;-82
2021/11/06 02:05:13;;;;;;;2.13;1.52;;;11.60;90.20;;;;;;4973843;28;20066;-80
2021/11/06 02:07:39;;;;;;;1.92;1.40;;;11.60;90.50;;;;;;4970017;28;20397;-81
2021/11/06 02:10:06;;;;;;;1.77;1.17;;;11.60;90.50;;;;;;4972330;28;20023;-81
2021/11/06 02:12:32;;;;;;;2.13;1.77;;;11.60;90.60;;;;;;4972146;28;20027;-81
2021/11/06 02:14:58;;;;;;;3.60;1.67;;;11.50;90.70;;;;;;4957934;28;20031;-80
2021/11/06 02:17:24;;;;;;;4.15;1.95;;;11.50;90.70;;;;;;4964036;28;20031;-83
2021/11/06 02:19:50;;;;;;;1.90;1.75;;;11.50;90.50;;;;;;4960854;28;20495;-81
2021/11/06 02:22:15;;;;;;;3.28;1.63;;;11.50;90.50;;;;;;4954767;28;20039;-82
2021/11/06 02:24:41;;;;;;;2.40;1.88;;;11.50;90.60;;;;;;4954911;28;20027;-83
2021/11/06 02:27:07;;;;;;;2.72;1.98;;;11.50;90.40;;;;;;4971341;28;20491;-83
2021/11/06 02:29:34;;;;;;;11.88;2.03;;;11.50;90.50;;;;;;4972879;28;20169;-84
2021/11/06 02:32:00;;;;;;;3.33;2.00;;;11.50;90.40;;;;;;4971000;28;20402;-82
2021/11/06 02:34:26;;;;;;;2.10;1.90;;;11.60;90.60;;;;;;4970089;28;20027;-83
2021/11/06 02:36:53;;;;;;;3.08;2.03;;;11.50;90.50;;;;;;4960498;28;20033;-83
2021/11/06 02:39:23;;;;;;;2.67;2.05;;;11.60;90.50;;;;;;4972460;28;20026;-83
2021/11/06 02:41:48;;;;;;;5.25;1.98;;;11.60;90.40;;;;;;4972358;28;20457;-83
2021/11/06 02:44:15;;;;;;;4.45;2.20;;;11.70;90.20;;;;;;4962785;28;20051;-82
2021/11/06 02:46:42;;;;;;;2.00;1.63;;;11.60;90.20;;;;;;4973579;28;20026;-84
2021/11/06 02:49:10;;;;;;;1.95;1.75;;;11.70;90.10;;;;;;4970874;28;20031;-86
2021/11/06 02:51:36;;;;;;;2.75;1.95;;;11.70;90.00;;;;;;4972900;28;20058;-84
2021/11/06 02:54:02;;;;;;;4.22;2.15;;;11.70;89.50;;;;;;4971193;28;20031;-83
2021/11/06 02:56:29;;;;;;;2.40;1.67;;;11.70;90.00;;;;;;4971990;28;20081;-82
2021/11/06 02:58:55;;;;;;;2.60;2.20;;;11.60;89.40;;;;;;4973179;28;20055;-83
2021/11/06 03:01:22;;;;;;;2.88;1.98;;;11.70;90.00;;;;;;4972121;28;20094;-83
2021/11/06 03:03:48;;;;;;;3.08;2.00;;;11.60;90.00;;;;;;4967735;28;20070;-83
2021/11/06 03:06:14;;;;;;;3.63;1.60;;;11.60;90.10;;;;;;4972039;28;20036;-85
2021/11/06 03:08:40;;;;;;;1.67;1.58;;;11.60;89.90;;;;;;4973105;28;20035;-83
2021/11/06 03:11:06;;;;;;;3.75;1.42;;;11.60;89.80;;;;;;4973272;28;20027;-84
2021/11/06 03:13:32;;;;;;;2.97;1.95;;;11.60;89.60;;;;;;4960512;28;20035;-84
2021/11/06 03:15:58;;;;;;;2.55;1.92;;;11.60;89.80;;;;;;4966642;28;20551;-83
2021/11/06 03:18:24;;;;;;;3.20;1.63;;;11.60;89.50;;;;;;4970294;28;20031;-83
2021/11/06 03:20:51;;;;;;;1.77;1.63;;;11.60;89.50;;;;;;4973496;28;20019;-83
2021/11/06 03:23:17;;;;;;;4.15;1.60;;;11.60;89.30;;;;;;4972834;28;20038;-85
2021/11/06 03:25:43;;;;;;;3.97;1.85;;;11.60;89.40;;;;;;4973818;28;20019;-84
2021/11/06 03:28:08;;;;;;;1.90;1.80;;;11.60;89.70;;;;;;4969883;28;20034;-83
2021/11/06 03:30:34;;;;;;;2.42;1.83;;;11.50;89.50;;;;;;4971549;28;20027;-82
2021/11/06 03:33:00;;;;;;;4.18;2.30;;;11.50;89.40;;;;;;4966482;28;20490;-83
2021/11/06 03:35:26;;;;;;;2.80;1.90;;;11.50;89.10;;;;;;4957154;28;20054;-82
2021/11/06 03:37:52;;;;;;;2.28;1.80;;;11.50;88.50;;;;;;4961661;28;20058;-81
2021/11/06 03:40:19;;;;;;;1.85;1.50;;;11.60;89.20;;;;;;4969216;28;20030;-83
2021/11/06 03:42:45;;;;;;;2.00;1.80;;;11.50;88.50;;;;;;4974683;28;20445;-82
2021/11/06 03:45:11;;;;;;;2.65;2.08;;;11.50;89.10;;;;;;4973643;28;20077;-81
2021/11/06 03:47:37;;;;;;;3.25;1.90;;;11.40;89.30;;;;;;4971102;28;20082;-82
2021/11/06 03:50:08;;;;;;;3.15;1.95;;;11.40;89.30;;;;;;4976609;28;20058;-83
2021/11/06 03:52:34;;;;;;;1.48;1.35;;;11.40;89.50;;;;;;4975066;28;20078;-83
2021/11/06 03:54:59;;;;;;;1.85;1.70;;;11.30;89.70;;;;;;4977124;28;20489;-85
2021/11/06 03:57:25;;;;;;;4.28;2.22;;;11.40;89.90;;;;;;4976639;28;20027;-84
2021/11/06 03:59:51;;;;;;;5.82;1.85;;;11.30;89.50;;;;;;4976946;28;20466;-84
2021/11/06 04:02:17;;;;;;;2.03;1.85;;;11.30;89.50;;;;;;4975813;28;20088;-86
2021/11/06 04:04:42;;;;;;;1.67;1.58;;;11.30;89.80;;;;;;4975924;28;20045;-84
2021/11/06 04:07:08;;;;;;;2.33;1.90;;;11.30;89.70;;;;;;4976627;28;20492;-85
2021/11/06 04:09:33;;;;;;;3.95;2.03;;;11.40;89.40;;;;;;4976118;28;20070;-86
2021/11/06 04:11:59;;;;;;;3.20;1.92;;;11.30;89.80;;;;;;4975152;28;20382;-84
2021/11/06 04:14:25;;;;;;;2.70;2.05;;;11.30;90.10;;;;;;4976462;28;20478;-84
2021/11/06 04:16:50;;;;;;;8.02;2.05;;;11.30;89.60;;;;;;4975058;28;20030;-82
2021/11/06 04:19:16;;;;;;;3.92;2.33;;;11.30;89.40;;;;;;4969962;28;20031;-82
2021/11/06 04:21:42;;;;;;;2.15;1.92;;;11.30;89.40;;;;;;4975670;28;20023;-82
2021/11/06 04:24:08;;;;;;;2.75;2.22;;;11.20;89.50;;;;;;4975758;28;20051;-83
2021/11/06 04:26:33;;;;;;;2.22;2.03;;;11.20;89.40;;;;;;4973905;28;20555;-83
2021/11/06 04:28:59;;;;;;;2.83;1.77;;;11.30;89.70;;;;;;4962731;28;20039;-85
2021/11/06 04:31:25;;;;;;;2.03;1.75;;;11.30;89.40;;;;;;4963644;28;20039;-83
2021/11/06 04:33:51;;;;;;;2.70;2.30;;;11.20;90.00;;;;;;4970527;28;20027;-83
2021/11/06 04:36:17;;;;;;;2.53;2.33;;;11.20;90.00;;;;;;4968697;28;20035;-84
2021/11/06 04:38:43;;;;;;;2.08;1.90;;;11.20;89.80;;;;;;4969922;28;20486;-84
2021/11/06 04:41:09;;;;;;;2.45;2.08;;;11.20;90.10;;;;;;4963288;28;20031;-83
2021/11/06 04:43:36;;;;;;;2.25;1.98;;;11.20;90.10;;;;;;4973670;28;20027;-83
2021/11/06 04:46:01;;;;;;;2.08;1.88;;;11.20;90.20;;;;;;4975851;28;20018;-83
2021/11/06 04:48:27;;;;;;;2.90;2.00;;;11.20;90.10;;;;;;4973127;28;20080;-84
2021/11/06 04:50:53;;;;;;;3.20;2.30;;;11.20;90.10;;;;;;4974851;28;20485;-83
2021/11/06 04:53:19;;;;;;;3.60;1.98;;;11.20;90.30;;;;;;4975463;28;20057;-84
2021/11/06 04:55:45;;;;;;;3.90;2.15;;;11.20;90.30;;;;;;4975674;28;20054;-84
2021/11/06 04:58:11;;;;;;;3.58;1.90;;;11.20;90.20;;;;;;4974167;28;20027;-83
2021/11/06 05:00:36;;;;;;;3.75;1.90;;;11.30;90.20;;;;;;4972271;28;20062;-84
2021/11/06 05:03:02;;;;;;;2.78;2.40;;;11.30;90.10;;;;;;4971446;28;20529;-83
2021/11/06 05:05:29;;;;;;;5.53;2.60;;;11.30;90.00;;;;;;4975538;28;20113;-84
2021/11/06 05:07:54;;;;;;;4.63;2.50;;;11.40;90.10;;;;;;4973548;28;20037;-84
2021/11/06 05:10:20;;;;;;;3.97;2.40;;;11.40;90.00;;;;;;4973730;28;20027;-84
2021/11/06 05:12:48;;;;;;;2.47;2.25;;;11.40;89.80;;;;;;4975213;28;20022;-83
2021/11/06 05:15:14;;;;;;;3.80;2.03;;;11.40;89.80;;;;;;4974275;28;20033;-84
2021/11/06 05:17:40;;;;;;;3.45;2.28;;;11.50;89.50;;;;;;4975113;28;20054;-84
2021/11/06 05:20:06;;;;;;;2.95;2.00;;;11.50;89.50;;;;;;4975434;28;20057;-84
2021/11/06 05:22:33;;;;;;;3.00;1.88;;;11.50;89.40;;;;;;4973374;28;20030;-85
2021/11/06 05:24:58;;;;;;;2.70;2.05;;;11.50;89.50;;;;;;4972840;28;20103;-85
2021/11/06 05:27:24;;;;;;;2.28;2.03;;;11.40;89.30;;;;;;4975421;28;20099;-86
2021/11/06 05:29:50;;;;;;;5.28;2.30;;;11.50;88.80;;;;;;4973584;28;20026;-82
2021/11/06 05:32:16;;;;;;;2.90;2.55;;;11.50;88.40;;;;;;4973273;28;20081;-84
2021/11/06 05:34:42;;;;;;;2.63;2.20;;;11.60;88.10;;;;;;4980236;28;20026;-83
2021/11/06 05:37:07;;;;;;;2.78;2.35;;;11.50;88.10;;;;;;4959910;28;20031;-81
2021/11/06 05:39:33;;;;;;;3.40;2.25;;;11.60;87.90;;;;;;4972764;28;20078;-85
2021/11/06 05:41:59;;;;;;;3.75;2.33;;;11.60;87.20;;;;;;4983068;28;20049;-83
2021/11/06 05:44:24;;;;;;;3.95;1.92;;;11.60;87.80;;;;;;4979537;28;20027;-84
2021/11/06 05:46:50;;;;;;;1.85;1.75;;;11.60;87.60;;;;;;4972427;28;20391;-82
2021/11/06 05:49:16;;;;;;;2.47;2.03;;;11.60;88.20;;;;;;4976572;28;20038;-84
2021/11/06 05:51:41;;;;;;;3.90;2.10;;;11.70;87.00;;;;;;4977876;28;20169;-82
2021/11/06 05:54:07;;;;;;;2.63;2.30;;;11.70;86.90;;;;;;4966879;28;20101;-83
2021/11/06 05:56:34;;;;;;;2.25;2.05;;;11.70;87.50;;;;;;4973795;28;20022;-81
2021/11/06 05:59:00;;;;;;;3.33;2.13;;;11.70;87.20;;;;;;4973570;28;20031;-81
2021/11/06 06:01:25;;;;;;;2.25;1.70;;;11.70;87.20;;;;;;4965637;28;20035;-81
2021/11/06 06:03:52;;;;;;;3.55;2.30;;;11.70;87.00;;;;;;4972249;28;20118;-82
2021/11/06 06:06:18;;;;;;;3.28;2.53;;;11.70;87.30;;;;;;4974581;28;20015;-84
2021/11/06 06:08:44;;;;;;;2.40;2.20;;;11.70;87.10;;;;;;4974373;28;20513;-84
2021/11/06 06:11:10;;;;;;;5.22;2.65;;;11.70;87.10;;;;;;4973011;28;20069;-84
2021/11/06 06:13:36;;;;;;;2.50;1.77;;;11.80;87.50;;;;;;4972747;28;20027;-85
2021/11/06 06:16:02;;;;;;;3.92;2.38;;;11.80;87.50;;;;;;4973812;28;20026;-85
2021/11/06 06:18:27;;;;;;;2.72;2.42;;;11.80;87.70;;;;;;4975348;28;20031;-83
2021/11/06 06:20:53;;;;;;;3.20;2.40;;;11.80;87.60;;;;;;4975606;28;20038;-83
2021/11/06 06:23:19;;;;;;;2.97;2.25;;;11.80;87.20;;;;;;4973710;28;20035;-85
2021/11/06 06:25:46;;;;;;;2.33;2.08;;;11.90;87.40;;;;;;4976079;28;20110;-85
2021/11/06 06:28:11;;;;;;;3.38;2.22;;;11.90;87.60;;;;;;4974998;28;20041;-84
2021/11/06 06:30:38;;;;;;;6.15;2.13;;;11.80;87.80;;;;;;4973457;28;20023;-88
2021/11/06 06:33:05;;;;;;;3.10;2.78;;;11.80;87.60;;;;;;4972332;28;20026;-86
2021/11/06 06:35:31;;;;;;;3.42;2.47;;;11.90;87.70;;;;;;4973563;28;20109;-84
2021/11/06 06:37:58;;;;;;;3.10;2.75;;;11.80;87.70;;;;;;4965137;28;20499;-86
2021/11/06 06:40:24;;;;;;;5.40;2.97;;;11.90;88.00;;;;;;4973678;28;20054;-87
2021/11/06 06:42:50;;;;;;;3.33;1.92;;;11.90;87.90;;;;;;4966049;28;20026;-85
2021/11/06 06:45:26;;;;;;;3.67;2.72;;;11.90;87.80;;;;;;4958424;29;20031;-86
2021/11/06 06:47:52;;;;;;;2.53;2.08;;;11.90;88.30;;;;;;4972718;28;20178;-83
2021/11/06 06:50:18;;;;;;;4.25;2.58;;;11.80;88.40;;;;;;4975161;28;20127;-84
2021/11/06 06:52:44;;;;;;;2.25;2.05;;;11.90;88.80;;;;;;4970385;28;20031;-87
2021/11/06 06:55:10;;;;;;;3.50;2.00;;;12.00;88.00;;;;;;4978082;28;20038;-83
2021/11/06 06:57:36;;;;;;;3.03;2.33;;;12.00;88.20;;;;;;4974161;28;20031;-86
2021/11/06 07:00:05;;;;;;;2.42;2.00;;;12.00;88.30;;;;;;4975219;28;20474;-83
2021/11/06 07:02:31;;;;;;;3.58;2.42;;;11.90;88.20;;;;;;4961985;28;20542;-84
2021/11/06 07:04:57;;;;;;;4.05;2.60;;;12.00;88.40;;;;;;4960734;28;20127;-87
2021/11/06 07:07:22;;;;;;;2.20;2.00;;;11.90;88.80;;;;;;4968545;28;20030;-85
2021/11/06 07:09:48;;;;;;;2.17;1.85;;;11.90;88.90;;;;;;4972662;28;20062;-84
2021/11/06 07:12:14;;;;;;;2.25;2.05;;;11.90;88.80;;;;;;4968512;28;20086;-86
2021/11/06 07:14:40;;;;;;;2.10;1.90;;;11.90;88.90;;;;;;4966817;28;20026;-84
2021/11/06 07:17:05;;;;;;;7.05;2.55;;;11.90;89.50;;;;;;4974048;28;20033;-86
2021/11/06 07:19:31;;;;;;;3.03;2.03;;;11.90;88.90;;;;;;4972950;28;20536;-85
2021/11/06 07:21:57;;;;;;;3.25;2.15;;;11.80;90.00;;;;;;4976640;28;20030;-83
2021/11/06 07:24:23;;;;;;;2.45;1.67;;;11.80;89.30;;;;;;4974279;28;20069;-85
2021/11/06 07:26:49;;;;;;;4.35;2.10;;;11.90;88.60;;;;;;4973485;28;20486;-84
2021/11/06 07:29:14;;;;;;;4.18;1.92;;;12.00;88.60;;;;;;4973753;28;20035;-83
2021/11/06 07:31:40;;;;;;;1.63;1.52;;;12.00;88.60;;;;;;4977560;28;20086;-85
2021/11/06 07:34:06;;;;;;;2.45;2.03;;;12.00;88.40;;;;;;4978918;28;20034;-84
2021/11/06 07:36:32;;;;;;;2.42;2.00;;;12.00;88.50;;;;;;4989428;28;20077;-85
2021/11/06 07:38:58;;;;;;;2.75;1.52;;;12.10;87.60;;;;;;4973815;28;20023;-83
2021/11/06 07:41:24;;;;;;;1.77;1.40;;;12.10;87.10;;;;;;4974434;28;20615;-86
2021/11/06 07:43:50;;;;;;;2.05;1.85;;;12.10;87.60;;;;;;4973036;28;20078;-84
2021/11/06 07:46:16;;;;;;;1.85;1.75;;;12.10;87.00;;;;;;4975178;28;20018;-84
2021/11/06 07:48:43;;;;;;;1.73;1.60;;;12.00;87.30;;;;;;4974313;28;20034;-85
2021/11/06 07:51:09;;;;;;;2.00;1.48;;;12.00;87.20;;;;;;4974115;28;20049;-83
2021/11/06 07:53:35;;;;;;;1.90;1.52;;;11.90;87.90;;;;;;4973504;28;20073;-87
2021/11/06 07:56:01;;;;;;;1.20;1.10;;;11.90;87.60;;;;;;4974216;28;20042;-87
2021/11/06 07:58:26;;;;;;;1.23;1.10;;;11.90;87.30;;;;;;4973365;28;20027;-85
2021/11/06 08:00:52;;;;;;;1.92;1.10;;;12.00;86.80;;;;;;4977387;28;20035;-86
2021/11/06 08:03:20;;;;;;;5.93;1.23;;;12.10;86.30;;;;;;4976869;28;20030;-88
2021/11/06 08:05:46;;;;;;;1.10;1.00;;;12.10;86.90;;;;;;4977518;28;20030;-86
2021/11/06 08:08:11;;;;;;;0.90;0.90;;;12.10;85.90;;;;;;4972479;28;20580;-85
2021/11/06 08:10:37;;;;;;;1.10;1.00;;;12.10;86.40;;;;;;4961752;28;20063;-85
2021/11/06 08:13:05;;;;;;;1.42;0.98;;;12.20;85.70;;;;;;4971816;28;20070;-85
2021/11/06 08:15:31;;;;;;;2.10;0.93;;;12.30;84.90;;;;;;4973477;28;20019;-84
2021/11/06 08:17:57;;;;;;;1.90;0.95;;;12.40;85.30;;;;;;4979044;28;20132;-78
2021/11/06 08:20:23;;;;;;;1.20;1.10;;;12.40;84.70;;;;;;4977726;28;20092;-85
2021/11/06 08:22:50;;;;;;;3.00;1.00;;;12.40;85.00;;;;;;4979706;28;20027;-84
2021/11/06 08:25:16;;;;;;;1.15;1.05;;;12.50;84.50;;;;;;4974585;28;20038;-81
2021/11/06 08:27:44;;;;;;;1.00;0.85;;;12.50;84.70;;;;;;4975785;28;20035;-78
2021/11/06 08:30:10;;;;;;;1.67;1.02;;;12.50;84.30;;;;;;4976675;28;20039;-90
2021/11/06 08:32:36;;;;;;;1.20;1.10;;;12.60;83.80;;;;;;4976240;28;20066;-87
2021/11/06 08:35:03;;;;;;;1.45;1.00;;;12.60;83.70;;;;;;4970283;28;20046;-79
2021/11/06 08:37:29;;;;;;;1.08;0.98;;;12.70;84.00;;;;;;4966919;28;20035;-80
2021/11/06 08:39:54;;;;;;;0.80;0.80;;;12.70;84.20;;;;;;4976218;28;20131;-86
2021/11/06 08:42:20;;;;;;;1.38;1.00;;;12.90;83.70;;;;;;4967610;28;20375;-86
2021/11/06 08:44:47;;;;;;;1.35;1.20;;;12.90;83.30;;;;;;4977358;28;20106;-79
2021/11/06 08:47:13;;;;;;;3.60;1.00;;;12.90;83.10;;;;;;4977792;28;20038;-82
2021/11/06 08:49:39;;;;;;;1.27;0.90;;;12.90;83.20;;;;;;4976016;28;20359;-84
2021/11/06 08:52:05;;;;;;;1.25;1.15;;;12.80;83.50;;;;;;4973960;28;20042;-81
2021/11/06 08:54:31;;;;;;;1.23;0.90;;;12.80;83.10;;;;;;4975631;28;20070;-80
2021/11/06 08:56:57;;;;;;;1.02;1.02;;;12.90;83.20;;;;;;4973178;28;20078;-83
2021/11/06 08:59:23;;;;;;;1.92;1.10;;;12.90;82.30;;;;;;4972989;28;20508;-82
2021/11/06 09:01:52;;;;;;;0.93;0.90;;;13.00;82.90;;;;;;4986502;28;20031;-86
2021/11/06 09:04:19;;;;;;;0.82;0.80;;;13.00;82.70;;;;;;4976393;28;20026;-84
2021/11/06 09:06:46;;;;;;;3.45;1.13;;;13.10;82.40;;;;;;4975589;28;20501;-84
2021/11/06 09:09:17;;;;;;;1.20;1.10;;;13.10;81.80;;;;;;4976691;28;20125;-87
2021/11/06 09:11:44;;;;;;;2.03;1.13;;;13.10;82.00;;;;;;4978765;28;20045;-86
2021/11/06 09:14:10;;;;;;;1.00;0.85;;;13.00;81.70;;;;;;4981458;28;20030;-89
2021/11/06 09:16:37;;;;;;;1.50;1.10;;;13.00;82.10;;;;;;4991910;28;20022;-90
2021/11/06 09:19:04;;;;;;;0.90;0.90;;;13.10;82.30;;;;;;4986332;28;20027;-90
2021/11/06 09:21:31;;;;;;;4.18;1.38;;;13.10;82.30;;;;;;4984538;28;20103;-91
2021/11/06 09:24:02;;;;;;;1.85;1.20;;;13.20;81.60;;;;;;4975385;28;20043;-90
2021/11/06 09:26:49;;;;;;;0.87;0.80;;;13.20;81.50;;;;;;4973948;28;20027;-87
2021/11/06 09:29:16;;;;;;;1.00;1.00;;;13.20;81.40;;;;;;5007886;28;20038;-89
2021/11/06 09:31:43;;;;;;;1.77;1.23;;;13.30;81.30;;;;;;5006328;28;20055;-91
2021/11/06 09:34:11;;;;;;;1.05;0.98;;;13.30;81.70;;;;;;5003551;28;20026;-90
2021/11/06 09:36:37;;;;;;;2.38;1.20;;;13.40;81.30;;;;;;5002903;28;20022;-90
2021/11/06 09:39:06;;;;;;;2.30;0.95;;;13.50;81.20;;;;;;4986028;28;20031;-88
2021/11/06 09:41:32;;;;;;;1.33;1.23;;;13.50;80.80;;;;;;4990143;28;20053;-91
2021/11/06 09:43:59;;;;;;;1.35;1.20;;;13.50;81.10;;;;;;4983561;28;20444;-87
2021/11/06 09:46:27;;;;;;;1.02;1.02;;;13.60;81.70;;;;;;5002229;28;20046;-89
2021/11/06 09:48:53;;;;;;;1.27;1.00;;;13.70;80.80;;;;;;4977812;28;20039;-88
2021/11/06 09:51:21;;;;;;;2.22;1.13;;;13.60;80.80;;;;;;4974041;28;20053;-90
2021/11/06 09:53:50;;;;;;;1.08;0.98;;;13.70;80.90;;;;;;4985913;28;20053;-88
2021/11/06 09:56:19;;;;;;;1.50;1.15;;;13.70;80.40;;;;;;4985586;28;20029;-91
2021/11/06 09:58:46;;;;;;;1.25;1.05;;;13.70;80.30;;;;;;4991259;28;20018;-91
2021/11/06 10:01:12;;;;;;;2.05;0.98;;;13.70;80.10;;;;;;4986645;28;20113;-93
2021/11/06 10:03:38;;;;;;;1.80;1.20;;;13.70;80.10;;;;;;4991731;28;20014;-90
2021/11/06 10:06:06;;;;;;;1.92;1.30;;;13.70;80.70;;;;;;4976780;28;20037;-89
2021/11/06 10:08:38;;;;;;;0.98;0.90;;;13.80;81.30;;;;;;4988382;28;20038;-88
2021/11/06 10:11:12;;;;;;;;;;;13.90;82.20;;;;;;4991051;28;20023;-90
2021/11/06 10:14:06;;;;;;;1.60;1.13;;;13.90;80.00;;;;;;4988963;28;19909;-89
2021/11/06 10:16:38;;;;;;;2.00;1.30;;;13.90;80.40;;;;;;4990642;28;20018;-86
2021/11/06 10:19:10;;;;;;;2.22;1.20;;;13.90;81.20;;;;;;5006152;28;20485;-90
2021/11/06 10:21:38;;;;;;;1.50;1.20;;;14.00;79.80;;;;;;4990843;28;20026;-90
2021/11/06 10:24:04;;;;;;;1.40;1.20;;;14.00;80.10;;;;;;5003463;28;20365;-90
2021/11/06 10:26:31;;;;;;;2.90;1.40;;;14.00;81.20;;;;;;4985140;28;20019;-88
2021/11/06 10:29:15;;;;;;;1.30;1.20;;;14.10;81.00;;;;;;4983241;28;20046;-88
2021/11/06 10:31:53;;;;;;;5.35;1.63;;;14.20;79.90;;;;;;4967122;28;20034;-87
2021/11/06 10:34:25;;;;;;;2.03;1.15;;;14.10;79.70;;;;;;4981920;28;20030;-92
2021/11/06 10:37:20;;;;;;;3.22;1.30;;;14.00;80.00;;;;;;4983431;28;20026;-91
2021/11/06 10:40:13;;;;;;;1.42;1.33;;;13.90;80.30;;;;;;4968337;28;20417;-91
2021/11/06 10:42:49;;;;;;;1.30;1.20;;;14.00;80.70;;;;;;4973866;28;20041;-89
2021/11/06 10:45:18;;;;;;;1.50;1.20;;;14.00;80.10;;;;;;4988258;28;20097;-87
2021/11/06 10:47:58;;;;;;;2.85;1.70;;;14.10;81.10;;;;;;4987280;28;20094;-90
2021/11/06 10:51:03;;;;;;;2.42;1.20;;;14.20;80.80;;;;;;4984989;28;20022;-92
2021/11/06 10:53:51;;;;;;;2.10;1.48;;;14.30;80.50;;;;;;4959958;28;20042;-91
2021/11/06 10:56:29;;;;;;;1.40;1.30;;;14.30;80.20;;;;;;5001863;28;20045;-88
2021/11/06 10:59:01;;;;;;;2.97;1.30;;;14.30;80.70;;;;;;4997669;28;20029;-92
2021/11/06 11:01:32;;;;;;;1.30;1.20;;;14.30;80.20;;;;;;5002947;28;20057;-92
2021/11/06 11:04:03;;;;;;;1.70;1.50;;;14.30;79.70;;;;;;4982476;28;20038;-92
2021/11/06 11:06:45;;;;;;;1.60;1.50;;;14.00;79.90;;;;;;5003280;28;20194;-90
2021/11/06 11:09:19;;;;;;;2.03;1.52;;;14.10;80.30;;;;;;4989591;28;20823;-89
2021/11/06 11:11:51;;;;;;;1.95;1.40;;;14.20;79.90;;;;;;4984229;28;20029;-88
2021/11/06 11:14:30;;;;;;;3.17;1.37;;;14.30;80.40;;;;;;4988373;28;20092;-90
2021/11/06 11:17:01;;;;;;;3.42;1.25;;;14.40;79.70;;;;;;5006516;28;20034;-90
2021/11/06 11:19:37;;;;;;;2.47;1.58;;;14.40;79.50;;;;;;4986992;28;20037;-91
2021/11/06 11:22:04;;;;;;;5.35;1.25;;;14.40;79.20;;;;;;5001191;28;20085;-88
2021/11/06 11:24:32;;;;;;;2.17;1.50;;;14.30;78.70;;;;;;4985342;28;20022;-89
2021/11/06 11:26:58;;;;;;;1.52;1.42;;;14.20;78.80;;;;;;5001980;28;20038;-90
2021/11/06 11:29:32;;;;;;;2.20;1.33;;;14.30;78.60;;;;;;4999362;28;20041;-91
2021/11/06 11:31:59;;;;;;;1.52;1.40;;;14.40;79.30;;;;;;4987416;28;20035;-92
2021/11/06 11:34:32;;;;;;;1.58;1.42;;;14.40;78.30;;;;;;4971682;28;20031;-92
2021/11/06 11:36:59;;;;;;;1.30;1.20;;;14.40;79.20;;;;;;4987218;28;20034;-90
2021/11/06 11:39:27;;;;;;;1.98;1.50;;;14.40;78.30;;;;;;5001851;28;20044;-90
2021/11/06 11:42:04;;;;;;;2.50;1.38;;;14.50;79.40;;;;;;5003717;28;20021;-90
2021/11/06 11:44:55;;;;;;;1.58;1.30;;;14.70;78.20;;;;;;5000836;28;20019;-89
2021/11/06 11:47:46;;;;;;;1.48;1.38;;;14.60;77.60;;;;;;4982457;28;20045;-93
2021/11/06 11:50:16;;;;;;;1.13;1.02;;;14.80;77.30;;;;;;4984456;28;20053;-89
2021/11/06 11:52:43;;;;;;;3.97;1.35;;;14.80;77.50;;;;;;5000398;28;20050;-92
2021/11/06 11:55:12;;;;;;;2.03;1.55;;;14.80;76.60;;;;;;5000754;28;20035;-91
2021/11/06 11:57:41;;;;;;;1.45;1.35;;;14.70;76.70;;;;;;5002221;28;20022;-91
2021/11/06 12:00:21;;;;;;;1.88;1.38;;;14.60;76.20;;;;;;4985535;28;20094;-92
2021/11/06 12:03:00;;;;;;;1.50;1.40;;;14.90;76.50;;;;;;4992279;28;20105;-92
2021/11/06 12:05:33;;;;;;;3.15;1.58;;;15.40;74.40;;;;;;5006856;28;20037;-89
2021/11/06 12:08:11;;;;;;;1.75;1.35;;;16.10;72.60;;;;;;4988402;28;20039;-91
2021/11/06 12:10:44;;;;;;;3.40;1.20;;;17.90;69.40;;;;;;4989910;28;20030;-90
2021/11/06 12:13:33;;;;;;;1.20;1.15;;;19.50;66.20;;;;;;5004515;28;20018;-89
2021/11/06 12:16:13;;;;;;;1.15;1.05;;;20.30;63.30;;;;;;4975277;28;20026;-91
2021/11/06 12:18:44;;;;;;;2.50;1.55;;;21.30;61.30;;;;;;5001768;28;20018;-88
2021/11/06 12:21:14;;;;;;;1.75;1.40;;;20.40;60.60;;;;;;5000663;28;20027;-89
2021/11/06 12:23:40;;;;;;;2.15;1.40;;;20.30;61.30;;;;;;4984447;28;20041;-90
2021/11/06 12:26:27;;;;;;;3.65;1.50;;;20.90;60.30;;;;;;5004331;28;20549;-90
2021/11/06 12:29:05;;;;;;;1.98;1.27;;;20.50;60.40;;;;;;4988808;28;20038;-88
2021/11/06 12:31:32;;;;;;;7.00;1.80;;;20.70;60.40;;;;;;4988036;28;20022;-91
2021/11/06 12:33:59;;;;;;;1.75;1.65;;;21.00;60.40;;;;;;4984890;28;20057;-88
2021/11/06 12:36:28;;;;;;;1.70;1.60;;;21.50;59.10;;;;;;5005808;28;20398;-90
2021/11/06 12:39:04;;;;;;;2.05;1.45;;;19.80;61.20;;;;;;4984386;28;20048;-88
2021/11/06 12:41:32;;;;;;;1.90;1.52;;;20.30;61.40;;;;;;4984052;28;20022;-89
2021/11/06 12:43:59;;;;;;;4.32;1.92;;;19.80;61.90;;;;;;5004030;28;20029;-91
2021/11/06 12:46:27;;;;;;;1.83;1.70;;;19.60;62.00;;;;;;5002993;28;20023;-91
2021/11/06 12:48:56;;;;;;;3.83;1.75;;;19.90;62.20;;;;;;4985721;28;20034;-88
2021/11/06 12:51:28;;;;;;;1.90;1.70;;;20.30;60.80;;;;;;4980845;28;20055;-88